createdAt,value
2018-12-20T00:01:13.320Z,20.65
2018-12-20T00:03:41.535Z,19.45
2018-12-20T00:06:09.712Z,20.27
2018-12-20T00:08:37.997Z,18.62
2018-12-20T00:11:06.408Z,19.15
2018-12-20T00:13:34.681Z,18.25
2018-12-20T00:16:02.969Z,18.85
2018-12-20T00:18:31.339Z,18.10
2018-12-20T00:20:59.636Z,18.40
2018-12-20T00:23:27.845Z,18.73
2018-12-20T00:25:56.173Z,18.48
2018-12-20T00:28:24.522Z,18.62
2018-12-20T00:30:52.923Z,17.80
2018-12-20T00:33:21.346Z,18.57
2018-12-20T00:35:49.593Z,18.27
2018-12-20T00:38:17.783Z,17.85
2018-12-20T00:40:45.964Z,17.60
2018-12-20T00:43:14.156Z,16.85
2018-12-20T00:45:42.335Z,16.77
2018-12-20T00:48:10.541Z,16.80
2018-12-20T00:50:38.708Z,16.67
2018-12-20T00:53:07.058Z,18.32
2018-12-20T00:55:35.296Z,17.20
2018-12-20T00:58:03.492Z,15.78
2018-12-20T01:00:31.759Z,16.48
2018-12-20T01:02:59.968Z,17.40
2018-12-20T01:05:28.144Z,16.57
2018-12-20T01:07:56.587Z,15.68
2018-12-20T01:10:25.159Z,16.82
2018-12-20T01:12:53.557Z,16.80
2018-12-20T01:15:21.926Z,16.55
2018-12-20T01:17:50.323Z,15.90
2018-12-20T01:20:18.700Z,16.10
2018-12-20T01:22:47.953Z,15.38
2018-12-20T01:25:16.206Z,16.12
2018-12-20T01:27:44.403Z,14.53
2018-12-20T01:30:12.673Z,14.68
2018-12-20T01:32:41.793Z,15.25
2018-12-20T01:35:09.998Z,14.00
2018-12-20T01:37:38.262Z,14.53
2018-12-20T01:40:06.692Z,15.18
2018-12-20T01:42:36.068Z,14.23
2018-12-20T01:45:04.659Z,16.07
2018-12-20T01:47:32.982Z,16.37
2018-12-20T01:50:01.151Z,15.05
2018-12-20T01:52:30.349Z,14.95
2018-12-20T01:54:58.769Z,15.55
2018-12-20T01:57:27.033Z,14.75
2018-12-20T01:59:55.360Z,14.87
2018-12-20T02:02:23.766Z,15.43
2018-12-20T02:04:52.280Z,14.10
2018-12-20T02:07:20.739Z,15.85
2018-12-20T02:09:48.896Z,16.12
2018-12-20T02:12:17.244Z,14.20
2018-12-20T02:14:45.600Z,15.18
2018-12-20T02:17:13.864Z,15.05
2018-12-20T02:19:42.136Z,15.03
2018-12-20T02:22:10.362Z,15.83
2018-12-20T02:24:38.554Z,14.60
2018-12-20T02:27:06.822Z,15.23
2018-12-20T02:29:34.989Z,14.80
2018-12-20T02:32:03.289Z,15.25
2018-12-20T02:34:31.501Z,15.03
2018-12-20T02:36:59.636Z,15.63
2018-12-20T02:39:27.891Z,15.03
2018-12-20T02:41:56.233Z,15.48
2018-12-20T02:44:24.510Z,14.60
2018-12-20T02:46:52.717Z,16.27
2018-12-20T02:49:21.244Z,15.35
2018-12-20T02:51:49.645Z,14.40
2018-12-20T02:54:17.970Z,16.00
2018-12-20T02:56:46.382Z,15.38
2018-12-20T02:59:14.815Z,14.93
2018-12-20T03:01:43.132Z,15.78
2018-12-20T03:04:11.620Z,16.00
2018-12-20T03:06:40.156Z,16.42
2018-12-20T03:09:09.075Z,15.83
2018-12-20T03:11:37.352Z,16.10
2018-12-20T03:14:05.516Z,14.85
2018-12-20T03:16:33.847Z,15.20
2018-12-20T03:19:02.019Z,14.68
2018-12-20T03:21:30.298Z,15.18
2018-12-20T03:23:58.615Z,15.53
2018-12-20T03:26:27.031Z,15.98
2018-12-20T03:28:55.354Z,15.40
2018-12-20T03:31:23.640Z,14.70
2018-12-20T03:33:51.833Z,13.85
2018-12-20T03:36:20.107Z,15.93
2018-12-20T03:38:48.319Z,15.78
2018-12-20T03:41:17.305Z,14.98
2018-12-20T03:43:45.825Z,14.63
2018-12-20T03:46:14.189Z,14.47
2018-12-20T03:48:42.493Z,15.10
2018-12-20T03:51:10.677Z,15.95
2018-12-20T03:53:38.963Z,14.93
2018-12-20T03:56:07.176Z,16.02
2018-12-20T03:58:35.659Z,18.42
2018-12-20T04:01:03.865Z,19.37
2018-12-20T04:03:32.137Z,18.73
2018-12-20T04:06:00.312Z,19.27
2018-12-20T04:08:28.687Z,18.70
2018-12-20T04:10:56.902Z,17.95
2018-12-20T04:13:25.104Z,19.82
2018-12-20T04:15:53.532Z,19.67
2018-12-20T04:18:21.949Z,20.20
2018-12-20T04:20:50.409Z,19.37
2018-12-20T04:23:18.898Z,18.05
2018-12-20T04:25:47.183Z,17.50
2018-12-20T04:28:15.445Z,17.67
2018-12-20T04:30:43.820Z,18.23
2018-12-20T04:33:12.088Z,16.65
2018-12-20T04:35:40.181Z,17.32
2018-12-20T04:38:08.387Z,18.52
2018-12-20T04:40:36.574Z,18.77
2018-12-20T04:43:04.922Z,19.30
2018-12-20T04:45:33.162Z,17.02
2018-12-20T04:48:01.639Z,18.70
2018-12-20T04:50:29.869Z,19.37
2018-12-20T04:52:58.369Z,18.77
2018-12-20T04:55:26.733Z,18.60
2018-12-20T04:57:55.012Z,19.12
2018-12-20T05:00:23.387Z,18.92
2018-12-20T05:02:51.792Z,19.10
2018-12-20T05:05:20.325Z,18.62
2018-12-20T05:07:48.585Z,17.15
2018-12-20T05:10:16.971Z,18.42
2018-12-20T05:12:46.210Z,18.15
2018-12-20T05:15:14.515Z,18.15
2018-12-20T05:17:42.650Z,17.82
2018-12-20T05:20:11.142Z,17.92
2018-12-20T05:22:40.356Z,17.23
2018-12-20T05:25:08.599Z,17.70
2018-12-20T05:27:36.724Z,18.23
2018-12-20T05:30:05.353Z,18.20
2018-12-20T05:32:33.545Z,18.50
2018-12-20T05:35:01.736Z,19.25
2018-12-20T05:37:29.899Z,19.73
2018-12-20T05:39:58.077Z,20.85
2018-12-20T05:42:26.605Z,19.57
2018-12-20T05:44:54.919Z,19.12
2018-12-20T05:47:23.347Z,18.92
2018-12-20T05:49:51.673Z,18.90
2018-12-20T05:52:19.961Z,18.37
2018-12-20T05:54:48.116Z,18.40
2018-12-20T05:57:16.387Z,17.95
2018-12-20T05:59:44.731Z,18.40
2018-12-20T06:02:12.995Z,19.17
2018-12-20T06:04:41.362Z,18.30
2018-12-20T06:07:09.762Z,18.37
2018-12-20T06:09:37.980Z,16.93
2018-12-20T06:12:06.438Z,18.35
2018-12-20T06:14:34.638Z,17.15
2018-12-20T06:17:03.192Z,17.67
2018-12-20T06:19:31.694Z,18.87
2018-12-20T06:21:59.907Z,17.40
2018-12-20T06:24:28.095Z,18.30
2018-12-20T06:26:56.300Z,18.12
2018-12-20T06:29:24.488Z,18.15
2018-12-20T06:31:52.665Z,17.48
2018-12-20T06:34:20.848Z,18.67
2018-12-20T06:36:48.950Z,18.00
2018-12-20T06:39:17.128Z,16.57
2018-12-20T06:41:45.424Z,16.73
2018-12-20T06:44:13.588Z,16.07
2018-12-20T06:46:47.304Z,16.15
2018-12-20T06:49:15.492Z,15.43
2018-12-20T06:51:43.688Z,16.15
2018-12-20T06:54:11.869Z,15.48
2018-12-20T06:56:40.060Z,14.60
2018-12-20T06:59:08.256Z,14.18
2018-12-20T07:01:36.436Z,13.88
2018-12-20T07:04:04.620Z,13.70
2018-12-20T07:06:32.800Z,13.83
2018-12-20T07:09:01.008Z,14.75
2018-12-20T07:11:29.175Z,13.10
2018-12-20T07:13:57.376Z,13.43
2018-12-20T07:16:29.291Z,12.63
2018-12-20T07:18:55.736Z,13.20
2018-12-20T07:21:23.872Z,12.37
2018-12-20T07:23:52.076Z,11.97
2018-12-20T07:26:20.243Z,11.88
2018-12-20T07:28:48.437Z,12.20
2018-12-20T07:31:16.624Z,11.15
2018-12-20T07:33:44.812Z,12.18
2018-12-20T07:36:12.993Z,11.68
2018-12-20T07:38:41.189Z,11.25
2018-12-20T07:41:09.376Z,10.35
2018-12-20T07:43:37.559Z,10.20
2018-12-20T07:46:05.753Z,10.63
2018-12-20T07:48:33.941Z,10.43
2018-12-20T07:51:03.602Z,10.43
2018-12-20T07:53:31.952Z,9.63
2018-12-20T07:56:00.125Z,9.48
2018-12-20T07:58:28.320Z,9.53
2018-12-20T08:00:56.494Z,8.80
2018-12-20T08:03:24.687Z,9.10
2018-12-20T08:05:52.868Z,8.73
2018-12-20T08:08:21.072Z,8.83
2018-12-20T08:10:49.346Z,8.05
2018-12-20T08:13:17.444Z,8.85
2018-12-20T08:15:45.624Z,8.93
2018-12-20T08:18:13.828Z,8.05
2018-12-20T08:20:41.986Z,8.03
2018-12-20T08:23:10.066Z,6.87
2018-12-20T08:25:38.184Z,6.67
2018-12-20T08:28:06.344Z,6.85
2018-12-20T08:30:34.551Z,6.28
2018-12-20T08:33:02.723Z,6.87
2018-12-20T08:35:30.879Z,6.90
2018-12-20T08:37:58.955Z,7.37
2018-12-20T08:40:27.107Z,7.12
2018-12-20T08:42:55.268Z,5.95
2018-12-20T08:45:23.552Z,5.80
2018-12-20T08:47:51.637Z,4.70
2018-12-20T08:50:19.838Z,4.53
2018-12-20T08:52:48.044Z,4.37
2018-12-20T08:55:16.305Z,4.22
2018-12-20T08:57:44.484Z,4.90
2018-12-20T09:00:12.719Z,4.08
2018-12-20T09:02:41.029Z,4.00
2018-12-20T09:05:09.157Z,3.75
2018-12-20T09:07:37.349Z,4.50
2018-12-20T09:10:05.577Z,4.12
2018-12-20T09:12:33.712Z,3.83
2018-12-20T09:15:01.812Z,3.87
2018-12-20T09:17:30.080Z,3.92
2018-12-20T09:19:58.279Z,4.20
2018-12-20T09:22:26.516Z,4.17
2018-12-20T09:24:54.652Z,4.37
2018-12-20T09:27:22.828Z,5.05
2018-12-20T09:29:51.133Z,5.60
2018-12-20T09:32:19.313Z,5.35
2018-12-20T09:34:47.512Z,4.67
2018-12-20T09:37:15.603Z,4.83
2018-12-20T09:39:43.887Z,5.33
2018-12-20T09:42:12.074Z,5.90
2018-12-20T09:44:40.253Z,5.65
2018-12-20T09:47:13.920Z,5.95
2018-12-20T09:49:42.043Z,5.35
2018-12-20T09:52:10.240Z,5.58
2018-12-20T09:54:38.417Z,5.72
2018-12-20T09:57:06.621Z,5.30
2018-12-20T09:59:34.808Z,5.70
2018-12-20T10:02:03.071Z,5.45
2018-12-20T10:04:31.268Z,5.25
2018-12-20T10:06:59.460Z,5.40
2018-12-20T10:09:27.645Z,5.35
2018-12-20T10:11:55.840Z,5.90
2018-12-20T10:14:24.028Z,5.75
2018-12-20T10:16:52.193Z,6.20
2018-12-20T10:19:20.388Z,5.20
2018-12-20T10:21:48.592Z,4.83
2018-12-20T10:24:16.767Z,4.25
2018-12-20T10:26:44.994Z,5.05
2018-12-20T10:29:13.145Z,4.60
2018-12-20T10:31:41.324Z,4.58
2018-12-20T10:34:09.512Z,4.70
2018-12-20T10:36:38.188Z,3.58
2018-12-20T10:39:07.145Z,3.70
2018-12-20T10:41:35.241Z,3.80
2018-12-20T10:44:03.393Z,4.35
2018-12-20T10:46:31.585Z,3.50
2018-12-20T10:48:59.793Z,2.83
2018-12-20T10:51:27.961Z,2.80
2018-12-20T10:53:56.148Z,3.50
2018-12-20T10:56:24.381Z,3.92
2018-12-20T10:58:52.617Z,3.40
2018-12-20T11:01:26.205Z,3.37
2018-12-20T11:03:59.803Z,3.12
2018-12-20T11:06:33.260Z,2.80
2018-12-20T11:09:06.739Z,2.80
2018-12-20T11:11:40.436Z,3.02
2018-12-20T11:14:08.564Z,2.60
2018-12-20T11:16:36.748Z,2.50
2018-12-20T11:19:04.942Z,2.45
2018-12-20T11:21:33.123Z,2.45
2018-12-20T11:24:01.213Z,2.67
2018-12-20T11:26:29.691Z,2.60
2018-12-20T11:28:57.796Z,2.60
2018-12-20T11:31:25.988Z,2.33
2018-12-20T11:33:54.168Z,2.30
2018-12-20T11:36:22.349Z,2.70
2018-12-20T11:38:50.548Z,2.47
2018-12-20T11:41:18.720Z,2.50
2018-12-20T11:43:46.907Z,2.22
2018-12-20T11:46:15.092Z,2.37
2018-12-20T11:48:44.204Z,2.40
2018-12-20T11:51:12.285Z,1.82
2018-12-20T11:53:40.501Z,1.50
2018-12-20T11:56:08.734Z,1.62
2018-12-20T11:58:36.964Z,1.37
2018-12-20T12:01:05.205Z,1.52
2018-12-20T12:03:33.432Z,2.10
2018-12-20T12:06:01.548Z,1.47
2018-12-20T12:08:29.712Z,1.07
2018-12-20T12:10:57.888Z,0.88
2018-12-20T12:13:26.089Z,1.20
2018-12-20T12:15:54.258Z,0.85
2018-12-20T12:18:22.459Z,1.10
2018-12-20T12:20:50.633Z,0.82
2018-12-20T12:23:18.848Z,0.62
2018-12-20T12:25:46.916Z,0.70
2018-12-20T12:28:15.189Z,0.98
2018-12-20T12:30:43.401Z,0.95
2018-12-20T12:33:11.608Z,0.70
2018-12-20T12:35:39.779Z,0.88
2018-12-20T12:38:07.883Z,1.00
2018-12-20T12:40:36.055Z,0.90
2018-12-20T12:43:04.235Z,0.60
2018-12-20T12:45:32.435Z,0.60
2018-12-20T12:48:03.549Z,0.60
2018-12-20T12:50:31.464Z,0.50
2018-12-20T12:52:59.656Z,0.62
2018-12-20T12:55:27.855Z,0.57
2018-12-20T12:58:04.427Z,0.80
2018-12-20T13:00:26.159Z,0.93
2018-12-20T13:02:54.340Z,0.88
2018-12-20T13:05:22.529Z,0.80
2018-12-20T13:07:50.724Z,0.60
2018-12-20T13:10:19.144Z,0.40
2018-12-20T13:12:47.283Z,0.60
2018-12-20T13:15:15.404Z,0.60
2018-12-20T13:17:43.563Z,0.93
2018-12-20T13:20:11.802Z,0.50
2018-12-20T13:22:39.938Z,0.88
2018-12-20T13:25:08.343Z,0.90
2018-12-20T13:27:36.636Z,0.80
2018-12-20T13:30:09.256Z,0.70
2018-12-20T13:32:37.387Z,1.07
2018-12-20T13:35:05.643Z,0.82
2018-12-20T13:37:33.876Z,1.07
2018-12-20T13:40:02.074Z,0.90
2018-12-20T13:42:30.356Z,0.80
2018-12-20T13:44:58.648Z,0.60
2018-12-20T13:47:26.841Z,0.75
2018-12-20T13:49:55.020Z,0.70
2018-12-20T13:52:23.228Z,0.90
2018-12-20T13:54:51.678Z,0.85
2018-12-20T13:57:19.875Z,1.05
2018-12-20T13:59:48.081Z,1.17
2018-12-20T14:02:16.261Z,1.07
2018-12-20T14:04:44.458Z,1.00
2018-12-20T14:07:12.748Z,0.75
2018-12-20T14:09:41.012Z,0.85
2018-12-20T14:12:09.233Z,0.90
2018-12-20T14:14:37.400Z,0.85
2018-12-20T14:17:05.971Z,1.20
2018-12-20T14:19:34.205Z,1.30
2018-12-20T14:22:02.432Z,0.70
2018-12-20T14:24:30.561Z,1.57
2018-12-20T14:26:58.752Z,1.00
2018-12-20T14:29:26.941Z,0.72
2018-12-20T14:31:55.127Z,1.07
2018-12-20T14:34:23.304Z,0.95
2018-12-20T14:36:51.498Z,1.00
2018-12-20T14:39:19.692Z,0.60
2018-12-20T14:41:47.989Z,0.70
2018-12-20T14:44:16.148Z,0.80
2018-12-20T14:46:44.335Z,0.80
2018-12-20T14:49:12.552Z,0.60
2018-12-20T14:51:40.721Z,0.85
2018-12-20T14:54:08.887Z,0.70
2018-12-20T14:56:37.084Z,1.02
2018-12-20T14:59:05.312Z,0.60
2018-12-20T15:01:33.471Z,0.88
2018-12-20T15:04:01.643Z,0.85
2018-12-20T15:06:29.852Z,0.88
2018-12-20T15:08:58.120Z,1.00
2018-12-20T15:11:26.325Z,1.17
2018-12-20T15:13:54.502Z,1.40
2018-12-20T15:16:22.779Z,1.20
2018-12-20T15:18:51.080Z,1.00
2018-12-20T15:21:19.260Z,1.30
2018-12-20T15:23:47.550Z,1.02
2018-12-20T15:26:15.844Z,1.10
2018-12-20T15:28:44.027Z,1.10
2018-12-20T15:31:12.216Z,1.17
2018-12-20T15:33:40.408Z,1.22
2018-12-20T15:36:08.584Z,1.40
2018-12-20T15:38:36.783Z,1.60
2018-12-20T15:41:04.964Z,1.57
2018-12-20T15:43:33.262Z,1.70
2018-12-20T15:46:01.441Z,1.55
2018-12-20T15:48:29.843Z,2.05
2018-12-20T15:50:58.049Z,1.90
2018-12-20T15:53:26.313Z,1.90
2018-12-20T15:55:54.500Z,2.02
2018-12-20T15:58:22.817Z,2.12
2018-12-20T16:00:50.980Z,2.22
2018-12-20T16:03:19.269Z,1.77
2018-12-20T16:05:47.491Z,2.35
2018-12-20T16:08:15.638Z,2.30
2018-12-20T16:10:43.852Z,2.45
2018-12-20T16:13:12.124Z,2.40
2018-12-20T16:15:40.395Z,2.30
2018-12-20T16:18:08.588Z,2.50
2018-12-20T16:20:36.804Z,3.17
2018-12-20T16:23:04.976Z,2.30
2018-12-20T16:25:33.189Z,2.62
2018-12-20T16:28:01.512Z,2.70
2018-12-20T16:30:29.727Z,2.35
2018-12-20T16:32:57.913Z,3.00
2018-12-20T16:35:26.100Z,2.52
2018-12-20T16:37:54.333Z,2.60
2018-12-20T16:40:22.607Z,2.62
2018-12-20T16:42:51.030Z,2.90
2018-12-20T16:45:19.273Z,2.75
2018-12-20T16:47:47.712Z,2.90
2018-12-20T16:50:15.965Z,3.00
2018-12-20T16:52:44.120Z,2.52
2018-12-20T16:55:12.361Z,2.70
2018-12-20T16:57:40.487Z,2.55
2018-12-20T17:00:10.623Z,2.77
2018-12-20T17:02:38.812Z,2.90
2018-12-20T17:05:07.016Z,2.50
2018-12-20T17:07:35.185Z,2.90
2018-12-20T17:10:03.541Z,3.00
2018-12-20T17:12:32.696Z,2.30
2018-12-20T17:15:00.883Z,2.20
2018-12-20T17:17:29.068Z,2.58
2018-12-20T17:19:57.252Z,2.92
2018-12-20T17:22:25.445Z,2.12
2018-12-20T17:24:53.636Z,2.58
2018-12-20T17:27:21.820Z,2.10
2018-12-20T17:29:50.004Z,2.15
2018-12-20T17:32:18.189Z,2.65
2018-12-20T17:34:46.371Z,1.80
2018-12-20T17:37:14.560Z,2.55
2018-12-20T17:39:42.684Z,2.15
2018-12-20T17:42:10.836Z,2.12
2018-12-20T17:44:39.020Z,2.58
2018-12-20T17:47:07.225Z,2.10
2018-12-20T17:49:35.588Z,2.22
2018-12-20T17:52:03.783Z,2.05
2018-12-20T17:54:31.977Z,2.37
2018-12-20T17:57:00.168Z,2.42
2018-12-20T17:59:28.272Z,2.55
2018-12-20T18:01:56.436Z,2.90
2018-12-20T18:04:24.656Z,3.17
2018-12-20T18:06:52.812Z,2.72
2018-12-20T18:09:20.996Z,2.60
2018-12-20T18:11:49.297Z,2.90
2018-12-20T18:14:17.475Z,2.67
2018-12-20T18:16:45.727Z,2.35
2018-12-20T18:19:13.953Z,2.17
2018-12-20T18:21:42.147Z,2.98
2018-12-20T18:24:10.420Z,2.87
2018-12-20T18:26:38.612Z,2.10
2018-12-20T18:29:06.788Z,2.22
2018-12-20T18:31:34.985Z,1.92
2018-12-20T18:34:03.181Z,3.62
2018-12-20T18:36:31.360Z,2.27
2018-12-20T18:38:59.547Z,2.22
2018-12-20T18:41:27.731Z,2.42
2018-12-20T18:43:55.913Z,2.20
2018-12-20T18:46:26.216Z,2.25
2018-12-20T18:48:54.256Z,2.50
2018-12-20T18:51:22.425Z,2.42
2018-12-20T18:53:50.524Z,1.98
2018-12-20T18:56:18.704Z,2.08
2018-12-20T18:58:46.880Z,2.05
2018-12-20T19:01:15.076Z,1.90
2018-12-20T19:03:43.256Z,1.90
2018-12-20T19:06:11.444Z,2.10
2018-12-20T19:08:39.636Z,2.40
2018-12-20T19:11:07.852Z,2.47
2018-12-20T19:13:36.025Z,2.52
2018-12-20T19:16:04.292Z,2.30
2018-12-20T19:18:32.483Z,2.25
2018-12-20T19:21:00.663Z,2.50
2018-12-20T19:23:28.869Z,2.87
2018-12-20T19:25:57.136Z,2.27
2018-12-20T19:28:25.336Z,2.10
2018-12-20T19:30:53.532Z,2.08
2018-12-20T19:33:21.765Z,2.37
2018-12-20T19:35:49.888Z,2.42
2018-12-20T19:38:20.540Z,2.42
2018-12-20T19:40:48.148Z,2.40
2018-12-20T19:43:16.269Z,2.75
2018-12-20T19:45:46.156Z,2.30
2018-12-20T19:48:14.629Z,2.58
2018-12-20T19:50:42.788Z,2.72
2018-12-20T19:53:11.001Z,2.80
2018-12-20T19:55:39.111Z,2.40
2018-12-20T19:58:07.364Z,2.15
2018-12-20T20:00:35.548Z,2.40
2018-12-20T20:03:03.749Z,3.05
2018-12-20T20:05:31.916Z,1.82
2018-12-20T20:08:00.142Z,2.17
2018-12-20T20:10:28.296Z,2.47
2018-12-20T20:12:56.485Z,1.90
2018-12-20T20:15:24.846Z,2.00
2018-12-20T20:17:53.072Z,1.77
2018-12-20T20:20:21.249Z,2.42
2018-12-20T20:22:49.549Z,1.95
2018-12-20T20:25:17.651Z,1.95
2018-12-20T20:27:45.848Z,2.52
2018-12-20T20:30:14.924Z,1.98
2018-12-20T20:32:43.139Z,1.92
2018-12-20T20:35:11.284Z,2.10
2018-12-20T20:37:39.582Z,2.00
2018-12-20T20:40:09.965Z,2.25
2018-12-20T20:42:38.308Z,2.37
2018-12-20T20:45:06.831Z,2.35
2018-12-20T20:47:34.991Z,2.25
2018-12-20T20:50:03.357Z,1.67
2018-12-20T20:52:31.589Z,1.80
2018-12-20T20:54:59.956Z,2.33
2018-12-20T20:57:28.827Z,1.70
2018-12-20T20:59:57.201Z,2.45
2018-12-20T21:02:25.335Z,2.33
2018-12-20T21:04:53.596Z,1.62
2018-12-20T21:07:21.921Z,1.70
2018-12-20T21:09:50.112Z,1.42
2018-12-20T21:12:22.796Z,1.85
2018-12-20T21:14:52.291Z,1.60
2018-12-20T21:17:18.572Z,1.55
2018-12-20T21:19:46.872Z,1.62
2018-12-20T21:22:15.024Z,1.90
2018-12-20T21:24:43.298Z,2.05
2018-12-20T21:27:11.408Z,2.27
2018-12-20T21:29:39.883Z,2.20
2018-12-20T21:32:08.219Z,1.87
2018-12-20T21:34:36.632Z,1.87
2018-12-20T21:37:04.768Z,2.10
2018-12-20T21:39:33.072Z,2.35
2018-12-20T21:42:01.189Z,2.05
2018-12-20T21:44:29.341Z,2.05
2018-12-20T21:46:58.001Z,1.80
2018-12-20T21:49:26.157Z,1.85
2018-12-20T21:51:55.224Z,1.65
2018-12-20T21:54:23.507Z,1.90
2018-12-20T21:56:52.827Z,1.75
2018-12-20T21:59:21.093Z,2.10
2018-12-20T22:01:49.740Z,2.02
2018-12-20T22:04:18.912Z,2.00
2018-12-20T22:06:47.104Z,2.12
2018-12-20T22:09:15.315Z,1.62
2018-12-20T22:11:44.121Z,2.35
2018-12-20T22:14:12.293Z,2.15
2018-12-20T22:16:40.488Z,2.30
2018-12-20T22:19:08.660Z,2.47
2018-12-20T22:21:36.848Z,2.67
2018-12-20T22:24:05.024Z,2.80
2018-12-20T22:26:33.225Z,3.00
2018-12-20T22:29:01.444Z,2.30
2018-12-20T22:31:29.601Z,2.60
2018-12-20T22:33:57.785Z,2.35
2018-12-20T22:36:26.084Z,2.50
2018-12-20T22:38:54.267Z,1.92
2018-12-20T22:41:22.405Z,2.08
2018-12-20T22:43:50.627Z,2.25
2018-12-20T22:46:18.849Z,1.98
2018-12-20T22:48:47.015Z,2.22
2018-12-20T22:51:15.200Z,2.47
2018-12-20T22:53:43.382Z,2.27
2018-12-20T22:56:11.568Z,2.33
2018-12-20T22:58:39.753Z,2.52
2018-12-20T23:01:08.039Z,2.85
2018-12-20T23:03:36.225Z,2.80
2018-12-20T23:06:04.509Z,2.70
2018-12-20T23:08:32.704Z,2.60
2018-12-20T23:11:00.909Z,2.70
2018-12-20T23:13:29.085Z,2.90
2018-12-20T23:15:57.273Z,2.77
2018-12-20T23:18:25.448Z,2.92
2018-12-20T23:20:53.646Z,2.33
2018-12-20T23:23:21.819Z,2.60
2018-12-20T23:25:50.024Z,2.87
2018-12-20T23:28:18.197Z,2.87
2018-12-20T23:30:46.396Z,2.80
2018-12-20T23:33:14.576Z,2.92
2018-12-20T23:35:42.772Z,2.98
2018-12-20T23:38:10.941Z,3.12
2018-12-20T23:40:39.161Z,2.35
2018-12-20T23:43:07.332Z,2.60
2018-12-20T23:45:35.504Z,2.55
2018-12-20T23:48:03.709Z,2.40
2018-12-20T23:50:31.880Z,2.25
2018-12-20T23:53:00.081Z,2.10
2018-12-20T23:55:28.261Z,2.30
2018-12-20T23:57:56.461Z,2.30
